Time;durP1;ratioP1;P1;durP2;ratioP2;P2;SDS_P1;SDS_P2;PMS_P1;PMS_P2;Temp;Humidity;BMP_temperature;BMP_pressure;BME280_temperature;BME280_humidity;BME280_pressure;Samples;Min_cycle;Max_cycle;Signal;HPM_P1;HPM_P2
2021/03/06 00:01:53;;;;;;;20.42;7.32;;;;;;;-1.45;83.28;103103.44;6224603;28;20049;-73
2021/03/06 00:04:53;;;;;;;16.25;6.45;;;;;;;-1.40;82.49;103104.50;6224421;28;20046;-73
2021/03/06 00:07:55;;;;;;;12.48;5.82;;;;;;;-1.38;82.18;103108.00;6224380;28;20065;-73
2021/03/06 00:10:56;;;;;;;24.00;7.10;;;;;;;-1.39;82.70;103107.13;6224146;28;20046;-73
2021/03/06 00:13:57;;;;;;;14.27;6.03;;;;;;;-1.43;82.83;103109.56;6224287;28;20200;-73
2021/03/06 00:16:58;;;;;;;14.18;6.32;;;;;;;-1.49;83.44;103109.34;6224329;28;20057;-73
2021/03/06 00:19:59;;;;;;;16.58;6.25;;;;;;;-1.51;83.64;103111.84;6224188;28;20053;-73
2021/03/06 00:23:01;;;;;;;17.27;7.03;;;;;;;-1.52;83.73;103112.69;6223932;28;20053;-73
2021/03/06 00:26:02;;;;;;;12.70;5.72;;;;;;;-1.51;84.08;103114.44;6223946;28;20053;-73
2021/03/06 00:29:04;;;;;;;11.77;4.53;;;;;;;-1.48;83.46;103121.41;6230802;28;20547;-73
2021/03/06 00:32:05;;;;;;;12.30;4.68;;;;;;;-1.48;83.67;103116.25;6246268;28;20395;-73
2021/03/06 00:35:08;;;;;;;8.93;4.15;;;;;;;-1.55;83.92;103125.47;6248312;28;20049;-73
2021/03/06 00:38:10;;;;;;;12.05;3.95;;;;;;;-1.58;84.54;103126.25;6248174;28;20421;-73
2021/03/06 00:41:11;;;;;;;9.82;4.25;;;;;;;-1.62;84.81;103129.53;6247909;28;20395;-73
2021/03/06 00:44:12;;;;;;;24.60;4.43;;;;;;;-1.63;84.95;103121.78;6248246;28;20049;-73
2021/03/06 00:47:13;;;;;;;13.88;4.10;;;;;;;-1.57;85.07;103116.81;6247113;28;20103;-73
2021/03/06 00:50:18;;;;;;;7.45;3.63;;;;;;;-1.57;86.02;103115.13;6248021;28;20045;-73
2021/03/06 00:53:20;;;;;;;13.25;4.03;;;;;;;-1.56;85.84;103119.44;6247923;28;20049;-73
2021/03/06 00:56:21;;;;;;;6.75;3.40;;;;;;;-1.50;85.20;103117.88;6270125;22;20052;-73
2021/03/06 00:59:22;;;;;;;7.93;3.63;;;;;;;-1.51;85.08;103122.16;6248915;28;20053;-74
2021/03/06 01:02:22;;;;;;;7.60;3.80;;;;;;;-1.48;84.06;103116.25;6247431;28;20049;-75
2021/03/06 01:05:23;;;;;;;15.13;4.63;;;;;;;-1.52;84.94;103116.97;6247621;28;20053;-73
2021/03/06 01:08:25;;;;;;;10.65;3.25;;;;;;;-1.36;84.50;103116.69;6247488;28;20128;-73
2021/03/06 01:11:26;;;;;;;12.73;3.70;;;;;;;-1.50;84.94;103107.56;6247298;28;20042;-73
2021/03/06 01:14:27;;;;;;;12.02;3.42;;;;;;;-1.46;85.22;103112.88;6247463;28;20061;-74
2021/03/06 01:17:28;;;;;;;11.82;3.92;;;;;;;-1.53;85.61;103116.09;6247397;28;20049;-75
2021/03/06 01:20:30;;;;;;;9.40;3.40;;;;;;;-1.64;86.75;103115.72;6247254;28;20533;-75
2021/03/06 01:23:32;;;;;;;8.38;3.97;;;;;;;-1.60;86.38;103112.41;6247200;28;20053;-75
2021/03/06 01:26:33;;;;;;;12.00;3.65;;;;;;;-1.58;87.90;103105.63;6247286;28;20068;-73
2021/03/06 01:29:33;;;;;;;9.50;3.40;;;;;;;-1.52;87.80;103106.66;6246722;28;20049;-74
2021/03/06 01:32:34;;;;;;;8.55;3.20;;;;;;;-1.48;87.93;103095.63;6246889;28;20115;-74
2021/03/06 01:35:35;;;;;;;17.50;3.97;;;;;;;-1.58;87.64;103090.16;6246760;28;20049;-74
2021/03/06 01:38:37;;;;;;;18.83;3.97;;;;;;;-1.55;88.48;103092.81;6246970;28;20136;-74
2021/03/06 01:41:38;;;;;;;16.40;4.60;;;;;;;-1.53;87.72;103095.47;6246540;28;20410;-74
2021/03/06 01:44:39;;;;;;;12.15;3.72;;;;;;;-1.49;86.80;103093.88;6247007;28;20060;-75
2021/03/06 01:47:40;;;;;;;15.02;3.67;;;;;;;-1.51;85.93;103095.50;6246741;28;20132;-75
2021/03/06 01:50:42;;;;;;;6.97;2.83;;;;;;;-1.53;86.34;103100.63;6246845;28;20096;-72
2021/03/06 01:53:44;;;;;;;7.75;3.20;;;;;;;-1.57;86.90;103091.91;6246709;28;20049;-75
2021/03/06 01:56:45;;;;;;;11.32;3.33;;;;;;;-1.61;87.20;103084.88;6246596;28;20474;-72
2021/03/06 01:59:46;;;;;;;9.60;3.50;;;;;;;-1.61;86.38;103079.72;6246102;28;20050;-73
2021/03/06 02:02:48;;;;;;;11.38;3.30;;;;;;;-1.63;86.43;103078.81;6246251;28;20053;-73
2021/03/06 02:05:49;;;;;;;9.80;3.97;;;;;;;-1.65;86.86;103080.44;6246566;28;20049;-74
2021/03/06 02:08:50;;;;;;;9.40;3.30;;;;;;;-1.69;86.94;103077.72;6246354;28;20099;-73
2021/03/06 02:12:02;;;;;;;8.75;3.25;;;;;;;-1.75;86.97;103080.97;6246302;28;20046;-74
2021/03/06 02:15:15;;;;;;;9.05;3.10;;;;;;;-1.76;87.34;103086.06;6246332;28;20060;-74
2021/03/06 02:18:21;;;;;;;10.90;2.92;;;;;;;-1.73;87.31;103073.28;6246458;28;20601;-73
2021/03/06 02:21:48;;;;;;;17.40;3.53;;;;;;;-1.68;87.51;103076.88;6246200;28;20049;-73
2021/03/06 02:25:03;;;;;;;12.88;3.13;;;;;;;-1.66;87.00;103072.69;6246261;28;20437;-73
2021/03/06 02:28:13;;;;;;;10.55;3.10;;;;;;;-1.70;87.35;103075.97;6245864;28;20057;-73
2021/03/06 02:31:15;;;;;;;14.70;2.97;;;;;;;-1.72;87.33;103078.50;6245809;28;20045;-73
2021/03/06 02:34:21;;;;;;;12.43;3.15;;;;;;;-1.70;87.15;103076.84;6246431;28;20049;-73
2021/03/06 02:37:26;;;;;;;12.57;3.30;;;;;;;-1.69;87.29;103077.72;6246066;28;20053;-73
2021/03/06 02:40:30;;;;;;;10.52;2.88;;;;;;;-1.67;87.48;103081.25;6246308;28;20048;-73
2021/03/06 02:43:31;;;;;;;12.77;3.00;;;;;;;-1.67;87.65;103084.69;6245931;28;20449;-73
2021/03/06 02:46:34;;;;;;;9.10;3.03;;;;;;;-1.64;87.55;103083.91;6245888;28;20049;-73
2021/03/06 02:49:35;;;;;;;16.52;3.22;;;;;;;-1.73;87.44;103087.03;6246265;28;20061;-73
2021/03/06 02:52:37;;;;;;;10.05;2.70;;;;;;;-1.64;88.43;103094.22;6245610;28;20045;-73
2021/03/06 02:55:37;;;;;;;14.93;3.33;;;;;;;-1.68;88.04;103080.38;6245804;28;20421;-74
2021/03/06 02:58:51;;;;;;;10.23;3.30;;;;;;;-1.74;87.84;103081.84;6245638;28;20128;-74
2021/03/06 03:02:04;;;;;;;11.10;2.95;;;;;;;-1.72;88.79;103078.50;6245874;28;20111;-73
2021/03/06 03:05:10;;;;;;;9.75;3.22;;;;;;;-1.76;89.90;103075.75;6245872;28;20058;-73
2021/03/06 03:08:18;;;;;;;13.80;3.53;;;;;;;-1.74;90.25;103079.25;6245766;28;20414;-72
2021/03/06 03:11:24;;;;;;;9.95;2.90;;;;;;;-1.69;90.12;103072.56;6248078;28;20080;-73
2021/03/06 03:14:29;;;;;;;14.07;3.55;;;;;;;-1.68;90.17;103066.56;6250385;28;20064;-74
2021/03/06 03:17:36;;;;;;;9.43;3.20;;;;;;;-1.67;89.67;103070.94;6249769;28;20056;-73
2021/03/06 03:20:43;;;;;;;18.65;3.58;;;;;;;-1.66;89.79;103076.13;6250218;28;20046;-73
2021/03/06 03:23:48;;;;;;;9.32;2.90;;;;;;;-1.65;89.27;103072.72;6250066;28;20054;-73
2021/03/06 03:26:50;;;;;;;8.07;2.85;;;;;;;-1.71;89.31;103069.94;6249915;28;20049;-73
2021/03/06 03:29:52;;;;;;;8.77;3.30;;;;;;;-1.70;89.32;103068.22;6249666;28;20045;-73
2021/03/06 03:32:55;;;;;;;12.75;3.60;;;;;;;-1.71;89.59;103069.94;6249657;28;20045;-73
2021/03/06 03:35:57;;;;;;;12.30;4.22;;;;;;;-1.69;89.43;103059.66;6249705;28;20056;-73
2021/03/06 03:38:58;;;;;;;19.23;3.42;;;;;;;-1.65;89.27;103049.53;6236749;28;20050;-73
2021/03/06 03:42:00;;;;;;;13.23;3.65;;;;;;;-1.69;89.54;103054.50;6224720;28;20056;-73
2021/03/06 03:45:05;;;;;;;12.48;4.45;;;;;;;-1.67;89.84;103058.03;6241373;28;20049;-73
2021/03/06 03:48:08;;;;;;;12.75;3.85;;;;;;;-1.71;90.01;103054.47;6249473;28;20045;-73
2021/03/06 03:51:09;;;;;;;13.73;3.80;;;;;;;-1.81;90.33;103055.00;6249374;28;20049;-73
2021/03/06 03:54:10;;;;;;;10.95;3.10;;;;;;;-1.90;90.17;103055.53;6249307;28;20493;-73
2021/03/06 03:57:11;;;;;;;14.48;3.17;;;;;;;-1.95;91.08;103054.50;6249202;28;20046;-73
2021/03/06 04:00:14;;;;;;;12.32;3.28;;;;;;;-1.97;91.29;103057.84;6226346;28;20133;-73
2021/03/06 04:03:17;;;;;;;12.60;3.08;;;;;;;-1.90;91.38;103064.97;6225503;28;20050;-73
2021/03/06 04:06:18;;;;;;;9.60;3.20;;;;;;;-1.89;91.36;103062.44;6200033;28;20073;-73
2021/03/06 04:09:19;;;;;;;9.23;3.10;;;;;;;-1.89;91.40;103067.59;6200093;28;20133;-73
2021/03/06 04:12:20;;;;;;;10.93;4.00;;;;;;;-1.83;91.07;103072.94;6199901;28;20049;-73
2021/03/06 04:15:22;;;;;;;14.10;3.72;;;;;;;-1.79;90.92;103071.38;6199974;28;20057;-73
2021/03/06 04:18:24;;;;;;;14.60;3.95;;;;;;;-1.76;90.56;103078.34;6200032;28;20112;-73
2021/03/06 04:21:25;;;;;;;16.17;3.20;;;;;;;-1.79;90.37;103068.78;6199495;28;20050;-73
2021/03/06 04:24:25;;;;;;;9.68;3.72;;;;;;;-1.77;90.48;103074.88;6200003;28;20054;-73
2021/03/06 04:27:26;;;;;;;8.00;3.17;;;;;;;-1.82;90.12;103073.81;6199744;28;20046;-73
2021/03/06 04:30:27;;;;;;;13.60;3.60;;;;;;;-1.88;90.24;103076.19;6233679;28;20057;-73
2021/03/06 04:33:29;;;;;;;13.05;3.30;;;;;;;-1.91;90.84;103082.09;6248355;28;20045;-73
2021/03/06 04:36:30;;;;;;;15.40;3.83;;;;;;;-1.92;90.99;103076.91;6248233;28;20057;-73
2021/03/06 04:39:31;;;;;;;9.07;3.50;;;;;;;-1.88;91.15;103079.66;6248459;28;20053;-73
2021/03/06 04:42:31;;;;;;;12.05;3.42;;;;;;;-1.82;91.28;103077.31;6247937;28;20486;-73
2021/03/06 04:45:32;;;;;;;9.57;2.92;;;;;;;-1.72;90.90;103078.50;6248142;28;20080;-73
2021/03/06 04:48:35;;;;;;;13.20;3.65;;;;;;;-1.77;91.12;103072.31;6248123;28;20061;-73
2021/03/06 04:51:36;;;;;;;7.88;2.92;;;;;;;-1.75;91.25;103080.09;6247869;28;20045;-73
2021/03/06 04:54:37;;;;;;;12.55;3.72;;;;;;;-1.73;91.31;103071.56;6248047;28;20132;-73
2021/03/06 04:57:38;;;;;;;15.52;3.75;;;;;;;-1.66;91.78;103078.69;6247663;28;20430;-72
2021/03/06 05:00:39;;;;;;;13.73;3.33;;;;;;;-1.60;91.95;103081.47;6247743;28;20077;-73
2021/03/06 05:03:40;;;;;;;16.77;3.88;;;;;;;-1.55;92.26;103077.34;6247413;28;20510;-72
2021/03/06 05:06:41;;;;;;;14.43;3.30;;;;;;;-1.49;92.36;103083.56;6247674;28;20092;-73
2021/03/06 05:09:42;;;;;;;8.95;3.40;;;;;;;-1.48;91.88;103087.91;6247427;28;20391;-73
2021/03/06 05:12:43;;;;;;;26.13;4.72;;;;;;;-1.45;91.58;103087.97;6247123;28;20099;-72
2021/03/06 05:15:44;;;;;;;16.13;3.28;;;;;;;-1.40;91.56;103082.19;6247330;28;20052;-73
2021/03/06 05:18:45;;;;;;;12.73;3.35;;;;;;;-1.32;91.03;103085.91;6247581;28;20453;-73
2021/03/06 05:21:46;;;;;;;11.73;3.67;;;;;;;-1.31;90.82;103095.38;6247086;28;20046;-73
2021/03/06 05:24:48;;;;;;;13.40;3.38;;;;;;;-1.35;91.06;103102.97;6247448;28;20049;-73
2021/03/06 05:27:51;;;;;;;13.60;3.22;;;;;;;-1.34;91.80;103103.00;6247208;28;20069;-73
2021/03/06 05:30:52;;;;;;;15.13;3.63;;;;;;;-1.26;92.07;103102.41;6246449;28;20053;-73
2021/03/06 05:33:54;;;;;;;8.55;2.92;;;;;;;-1.19;92.20;103105.22;6246707;28;20050;-73
2021/03/06 05:36:55;;;;;;;14.32;3.40;;;;;;;-1.23;92.38;103108.50;6246832;28;20049;-73
2021/03/06 05:39:56;;;;;;;12.70;3.40;;;;;;;-1.26;92.14;103103.28;6247053;28;20045;-73
2021/03/06 05:42:57;;;;;;;10.98;3.00;;;;;;;-1.20;92.33;103097.44;6228876;28;20418;-73
2021/03/06 05:45:58;;;;;;;12.88;3.55;;;;;;;-1.15;92.66;103106.19;6222213;28;20112;-73
2021/03/06 05:48:59;;;;;;;12.75;3.53;;;;;;;-1.14;92.75;103101.06;6222381;28;20050;-73
2021/03/06 05:52:01;;;;;;;8.32;3.10;;;;;;;-1.10;92.97;103105.50;6222125;28;20042;-73
2021/03/06 05:55:03;;;;;;;8.38;3.38;;;;;;;-1.09;92.92;103102.13;6221906;28;20054;-72
2021/03/06 05:58:05;;;;;;;7.50;2.95;;;;;;;-1.12;92.73;103091.69;6221633;28;20092;-73
2021/03/06 06:01:06;;;;;;;10.93;3.45;;;;;;;-1.08;92.32;103079.78;6230852;28;20046;-73
2021/03/06 06:04:08;;;;;;;6.40;2.67;;;;;;;-1.13;92.66;103079.63;6221393;28;20069;-72
2021/03/06 06:07:09;;;;;;;15.50;4.25;;;;;;;-1.10;92.91;103073.69;6222110;28;20057;-73
2021/03/06 06:10:11;;;;;;;8.95;3.47;;;;;;;-1.08;92.99;103078.06;6221836;28;20054;-73
2021/03/06 06:13:12;;;;;;;8.60;2.70;;;;;;;-0.99;93.23;103077.50;6221538;28;20518;-73
2021/03/06 06:16:14;;;;;;;15.20;3.80;;;;;;;-0.83;92.27;103076.25;6221876;28;20057;-74
2021/03/06 06:19:17;;;;;;;9.02;2.85;;;;;;;-0.75;91.52;103079.97;6221938;28;20064;-74
2021/03/06 06:22:19;;;;;;;10.60;2.75;;;;;;;-0.86;91.68;103092.53;6221731;28;20049;-74
2021/03/06 06:25:30;;;;;;;15.20;2.75;;;;;;;-0.77;91.51;103097.13;6221945;28;20542;-74
2021/03/06 06:28:31;;;;;;;9.68;2.58;;;;;;;-0.70;91.22;103093.88;6221834;28;20050;-74
2021/03/06 06:31:32;;;;;;;5.40;2.42;;;;;;;-0.59;90.87;103099.34;6245976;28;20045;-74
2021/03/06 06:34:36;;;;;;;17.00;3.35;;;;;;;-0.57;90.47;103105.47;6246268;28;20053;-74
2021/03/06 06:37:37;;;;;;;9.32;3.28;;;;;;;-0.31;89.42;103111.44;6246328;28;20049;-74
2021/03/06 06:40:39;;;;;;;12.77;2.72;;;;;;;-0.35;88.44;103110.44;6246041;28;20421;-74
2021/03/06 06:43:40;;;;;;;8.55;2.95;;;;;;;-0.45;89.28;103110.16;6245881;28;20045;-74
2021/03/06 06:46:41;;;;;;;8.88;3.22;;;;;;;-0.25;89.12;103116.75;6249561;28;20525;-74
2021/03/06 06:49:46;;;;;;;16.13;3.42;;;;;;;-0.34;90.05;103119.94;6250829;28;20121;-74
2021/03/06 06:52:47;;;;;;;12.27;2.85;;;;;;;-0.34;90.17;103119.94;6250584;28;20049;-74
2021/03/06 06:55:48;;;;;;;10.30;3.07;;;;;;;-0.32;90.87;103120.88;6275577;22;20469;-71
2021/03/06 06:58:49;;;;;;;11.15;3.58;;;;;;;-0.30;92.09;103120.91;6272066;28;20170;-72
2021/03/06 07:01:50;;;;;;;15.25;3.28;;;;;;;-0.30;92.22;103124.38;6283904;28;20041;-72
2021/03/06 07:04:54;;;;;;;11.32;3.72;;;;;;;-0.27;92.90;103126.19;6271158;28;20136;-72
2021/03/06 07:07:55;;;;;;;20.52;4.45;;;;;;;-0.11;93.44;103124.91;6250466;28;20049;-72
2021/03/06 07:10:57;;;;;;;12.70;3.03;;;;;;;-0.11;93.74;103117.16;6250018;28;20453;-72
2021/03/06 07:13:58;;;;;;;15.57;3.55;;;;;;;-0.11;93.32;103128.38;6250478;28;20045;-72
2021/03/06 07:17:00;;;;;;;17.65;4.97;;;;;;;-0.07;93.55;103124.19;6250124;28;20147;-72
2021/03/06 07:20:03;;;;;;;9.65;4.03;;;;;;;-0.10;93.68;103119.78;6257040;28;20049;-72
2021/03/06 07:23:16;;;;;;;16.95;4.05;;;;;;;0.04;94.02;103125.34;6274441;28;20060;-72
2021/03/06 07:26:17;;;;;;;7.82;3.13;;;;;;;0.16;93.84;103122.25;6274822;28;20139;-72
2021/03/06 07:29:18;;;;;;;12.23;4.07;;;;;;;0.13;93.88;103120.44;6274583;28;20059;-72
2021/03/06 07:32:20;;;;;;;6.00;3.00;;;;;;;0.16;94.23;103122.25;6275417;28;20048;-71
2021/03/06 07:35:24;;;;;;;10.38;3.63;;;;;;;0.18;94.44;103126.63;6274498;28;20049;-72
2021/03/06 07:38:25;;;;;;;14.80;3.35;;;;;;;0.28;95.00;103127.75;6273888;28;20457;-72
2021/03/06 07:41:29;;;;;;;8.32;3.70;;;;;;;0.32;94.13;103131.28;6273612;28;20045;-72
2021/03/06 07:44:32;;;;;;;10.45;3.95;;;;;;;0.33;94.06;103133.94;6274281;28;20052;-72
2021/03/06 07:47:37;;;;;;;9.73;4.38;;;;;;;0.33;94.80;103125.31;6274330;28;20053;-72
2021/03/06 07:50:40;;;;;;;13.75;3.33;;;;;;;0.52;93.42;103127.53;6274006;28;20052;-72
2021/03/06 07:53:44;;;;;;;12.95;4.15;;;;;;;0.55;93.61;103129.34;6274191;28;20060;-72
2021/03/06 07:56:45;;;;;;;14.07;4.18;;;;;;;0.70;93.82;103121.97;6272950;28;20041;-72
2021/03/06 07:59:47;;;;;;;10.73;4.43;;;;;;;0.90;92.33;103138.00;6273866;28;20056;-72
2021/03/06 08:02:48;;;;;;;8.57;3.17;;;;;;;0.76;92.31;103135.06;6295555;28;20056;-72
2021/03/06 08:05:51;;;;;;;12.13;4.53;;;;;;;0.78;93.16;103146.34;6291452;28;20056;-72
2021/03/06 08:08:56;;;;;;;8.50;3.15;;;;;;;0.85;93.31;103142.19;6273005;28;20048;-72
2021/03/06 08:11:57;;;;;;;10.30;3.70;;;;;;;1.02;92.77;103149.53;6273651;28;20037;-72
2021/03/06 08:14:58;;;;;;;17.10;3.95;;;;;;;1.12;92.96;103150.63;6273356;28;20131;-72
2021/03/06 08:18:00;;;;;;;16.00;4.60;;;;;;;1.24;92.76;103156.13;6273538;28;20045;-72
2021/03/06 08:21:26;;;;;;;7.68;2.85;;;;;;;1.57;91.34;103152.56;6273282;28;20083;-72
2021/03/06 08:24:30;;;;;;;10.90;3.05;;;;;;;1.67;90.89;103151.91;6273583;28;20051;-72
2021/03/06 08:27:31;;;;;;;11.57;2.00;;;;;;;1.68;89.17;103148.50;6273113;28;20133;-72
2021/03/06 08:30:32;;;;;;;9.10;2.33;;;;;;;1.63;89.97;103144.91;6273631;28;20132;-71
2021/03/06 08:33:33;;;;;;;12.32;3.25;;;;;;;1.67;89.98;103156.22;6273136;28;20052;-71
2021/03/06 08:36:34;;;;;;;7.78;2.80;;;;;;;1.88;88.34;103148.06;6273171;28;20505;-71
2021/03/06 08:39:35;;;;;;;10.05;2.30;;;;;;;2.18;86.98;103155.56;6273171;28;20493;-72
2021/03/06 08:42:38;;;;;;;14.73;2.35;;;;;;;2.28;87.02;103149.75;6273810;28;20045;-72
2021/03/06 08:45:39;;;;;;;11.27;2.40;;;;;;;2.13;85.34;103142.50;6272911;28;20094;-72
2021/03/06 08:48:42;;;;;;;10.82;2.05;;;;;;;2.34;85.03;103152.44;6272664;28;20048;-72
2021/03/06 08:51:44;;;;;;;7.35;2.20;;;;;;;2.22;85.40;103152.19;6272603;28;20044;-71
2021/03/06 08:54:45;;;;;;;10.00;2.25;;;;;;;2.47;84.82;103154.44;6272516;28;20053;-71
2021/03/06 08:57:46;;;;;;;10.48;2.10;;;;;;;2.22;86.20;103154.78;6270208;28;20091;-72
2021/03/06 09:00:48;;;;;;;8.02;1.95;;;;;;;2.33;85.17;103158.50;6273940;28;20477;-72
2021/03/06 09:03:49;;;;;;;10.75;2.47;;;;;;;2.09;86.07;103164.06;6272598;28;20048;-72
2021/03/06 09:06:51;;;;;;;8.02;2.60;;;;;;;2.14;86.68;103165.03;6272180;28;20559;-71
2021/03/06 09:09:52;;;;;;;6.47;2.53;;;;;;;2.10;87.98;103165.81;6271345;28;20049;-72
2021/03/06 09:12:56;;;;;;;20.38;3.10;;;;;;;2.25;86.60;103166.13;6271871;28;20494;-72
2021/03/06 09:16:00;;;;;;;10.05;2.40;;;;;;;2.21;86.92;103161.72;6271862;28;20049;-72
2021/03/06 09:19:00;;;;;;;6.55;2.20;;;;;;;2.56;87.02;103171.91;6272268;28;20049;-71
2021/03/06 09:22:05;;;;;;;6.05;2.35;;;;;;;2.32;88.02;103174.91;6271350;28;20115;-71
2021/03/06 09:25:07;;;;;;;3.47;1.92;;;;;;;2.29;89.17;103175.72;6277107;28;20056;-71
2021/03/06 09:28:10;;;;;;;7.85;2.35;;;;;;;2.16;90.85;103180.63;6296350;28;20049;-72
2021/03/06 09:31:14;;;;;;;15.50;2.72;;;;;;;2.22;93.06;103176.41;6285142;28;20052;-72
2021/03/06 09:34:15;;;;;;;10.10;2.50;;;;;;;2.31;92.47;103186.09;6271642;28;20057;-71
2021/03/06 09:37:18;;;;;;;6.10;2.47;;;;;;;2.20;94.29;103182.44;6271611;28;20057;-71
2021/03/06 09:40:21;;;;;;;11.55;2.75;;;;;;;2.14;94.27;103190.09;6270720;28;20191;-71
2021/03/06 09:43:27;;;;;;;6.75;2.13;;;;;;;2.22;93.77;103180.72;6271379;28;20055;-71
2021/03/06 09:46:31;;;;;;;12.60;2.80;;;;;;;2.10;95.49;103183.97;6270640;28;20052;-71
2021/03/06 09:49:36;;;;;;;10.82;2.70;;;;;;;2.31;95.38;103177.47;6270552;28;20049;-71
2021/03/06 09:52:37;;;;;;;10.60;2.63;;;;;;;2.19;94.97;103175.50;6270262;28;20110;-71
2021/03/06 09:55:38;;;;;;;11.50;2.63;;;;;;;2.28;94.62;103166.19;6271213;28;20049;-70
2021/03/06 09:58:40;;;;;;;12.25;2.85;;;;;;;2.34;94.70;103169.75;6271210;28;20056;-70
2021/03/06 10:01:41;;;;;;;7.55;2.15;;;;;;;2.26;94.50;103175.63;6279229;28;20055;-71
2021/03/06 10:04:45;;;;;;;10.30;3.00;;;;;;;2.31;95.25;103174.84;6287684;28;20045;-71
2021/03/06 10:07:48;;;;;;;4.88;2.20;;;;;;;2.57;94.78;103173.66;6271147;28;20045;-71
2021/03/06 10:10:49;;;;;;;9.38;2.58;;;;;;;2.77;93.60;103171.41;6270988;28;20525;-71
2021/03/06 10:13:52;;;;;;;10.95;2.65;;;;;;;2.65;94.44;103174.69;6271125;28;20060;-71
2021/03/06 10:16:54;;;;;;;11.93;3.05;;;;;;;2.92;93.65;103176.91;6271211;28;20048;-71
2021/03/06 10:19:55;;;;;;;17.65;3.25;;;;;;;2.92;94.12;103187.28;6273446;28;20528;-71
2021/03/06 10:22:57;;;;;;;9.95;2.33;;;;;;;2.97;92.58;103179.56;6275837;28;20393;-72
2021/03/06 10:26:19;;;;;;;7.38;2.60;;;;;;;2.90;93.03;103178.56;6279237;28;20053;-72
2021/03/06 10:29:22;;;;;;;8.40;2.45;;;;;;;3.05;92.67;103188.38;6275606;28;20493;-72
2021/03/06 10:32:23;;;;;;;13.77;2.90;;;;;;;3.08;92.58;103187.53;6262117;28;20048;-69
2021/03/06 10:35:35;;;;;;;8.50;2.70;;;;;;;3.14;91.46;103185.94;6275455;28;20045;-69
2021/03/06 10:38:36;;;;;;;13.18;2.97;;;;;;;3.20;91.88;103182.56;6274898;28;20136;-68
2021/03/06 10:41:37;;;;;;;9.63;2.97;;;;;;;2.85;94.27;103176.75;6274699;28;20087;-69
2021/03/06 10:44:40;;;;;;;15.25;3.08;;;;;;;2.76;94.84;103180.91;6275406;28;20053;-68
2021/03/06 10:47:48;;;;;;;6.97;3.33;;;;;;;2.73;97.41;103180.88;6275549;28;20083;-68
2021/03/06 10:50:54;;;;;;;9.55;4.35;;;;;;;2.92;98.56;103182.09;6274303;28;20080;-68
2021/03/06 10:54:03;;;;;;;9.38;3.45;;;;;;;3.10;97.63;103175.47;6273604;28;20053;-68
2021/03/06 10:57:05;;;;;;;15.45;4.20;;;;;;;3.27;96.53;103168.78;6274077;28;20048;-68
2021/03/06 11:00:19;;;;;;;12.07;5.50;;;;;;;3.14;97.45;103165.16;6274911;28;20516;-68
2021/03/06 11:03:20;;;;;;;14.50;4.50;;;;;;;3.39;95.96;103165.53;6275659;28;20508;-68
2021/03/06 11:06:20;;;;;;;12.50;4.53;;;;;;;3.54;94.22;103163.16;6275072;28;20049;-68
2021/03/06 11:09:26;;;;;;;10.45;3.90;;;;;;;3.49;93.98;103160.47;6275196;28;20513;-68
2021/03/06 11:12:30;;;;;;;13.20;4.05;;;;;;;3.37;94.88;103170.72;6274705;28;20091;-68
2021/03/06 11:15:31;;;;;;;14.50;4.40;;;;;;;3.41;95.68;103164.72;6274819;28;20132;-68
2021/03/06 11:18:32;;;;;;;14.50;4.90;;;;;;;3.27;95.43;103169.69;6274698;28;20567;-68
2021/03/06 11:21:33;;;;;;;15.52;4.25;;;;;;;3.41;95.39;103167.31;6273924;28;20585;-68
2021/03/06 11:24:35;;;;;;;10.60;4.38;;;;;;;3.08;97.26;103170.22;6272982;28;20049;-68
2021/03/06 11:27:47;;;;;;;15.68;4.57;;;;;;;3.00;97.94;103177.03;6272892;28;20059;-69
2021/03/06 11:30:48;;;;;;;9.32;4.97;;;;;;;3.08;98.86;103172.81;6272615;28;20099;-68
2021/03/06 11:33:49;;;;;;;17.63;5.07;;;;;;;3.11;97.79;103170.28;6273946;28;20057;-68
2021/03/06 11:36:50;;;;;;;11.57;5.10;;;;;;;3.21;96.14;103169.56;6272553;28;20103;-67
2021/03/06 11:39:52;;;;;;;10.73;4.90;;;;;;;3.25;96.34;103162.72;6274056;28;20460;-68
2021/03/06 11:42:53;;;;;;;10.75;5.72;;;;;;;3.38;95.85;103161.19;6272959;28;20099;-69
2021/03/06 11:45:54;;;;;;;9.48;5.10;;;;;;;3.56;95.93;103148.47;6273821;28;20045;-68
2021/03/06 11:48:54;;;;;;;12.93;4.93;;;;;;;3.51;94.85;103143.19;6273966;28;20060;-68
2021/03/06 11:51:55;;;;;;;15.18;6.55;;;;;;;3.53;95.45;103143.22;6272785;28;20451;-69
2021/03/06 11:54:57;;;;;;;11.68;5.93;;;;;;;3.41;95.31;103140.47;6273848;28;20074;-68
2021/03/06 11:57:58;;;;;;;12.65;6.10;;;;;;;3.26;95.65;103123.75;6273322;28;20048;-68
2021/03/06 12:00:59;;;;;;;15.55;6.05;;;;;;;3.46;95.62;103121.47;6272651;28;20048;-69
2021/03/06 12:03:59;;;;;;;9.10;5.63;;;;;;;3.60;96.40;103118.19;6282117;28;20055;-68
2021/03/06 12:07:00;;;;;;;9.45;5.65;;;;;;;3.68;95.82;103121.75;6273175;28;20049;-68
2021/03/06 12:10:04;;;;;;;11.57;5.22;;;;;;;3.76;94.80;103112.31;6273405;28;20045;-68
2021/03/06 12:13:05;;;;;;;12.95;5.15;;;;;;;3.64;94.08;103119.97;6272099;28;20041;-68
2021/03/06 12:16:06;;;;;;;12.68;5.25;;;;;;;3.79;94.58;103114.97;6272667;28;20140;-68
2021/03/06 12:19:07;;;;;;;10.32;4.65;;;;;;;3.84;94.57;103115.03;6273675;28;20049;-68
2021/03/06 12:22:08;;;;;;;12.07;4.82;;;;;;;3.68;94.56;103112.25;6273373;28;20543;-68
2021/03/06 12:25:11;;;;;;;18.73;5.53;;;;;;;3.53;95.94;103101.63;6273167;28;20045;-68
2021/03/06 12:28:12;;;;;;;12.32;5.35;;;;;;;3.75;94.83;103095.84;6272392;28;20051;-68
2021/03/06 12:31:13;;;;;;;11.07;4.93;;;;;;;3.66;95.96;103087.06;6272886;28;20045;-68
2021/03/06 12:34:15;;;;;;;18.10;5.32;;;;;;;4.06;93.29;103093.63;6274483;28;20048;-68
2021/03/06 12:37:17;;;;;;;14.68;4.78;;;;;;;4.05;93.42;103082.34;6272717;28;20098;-69
2021/03/06 12:40:18;;;;;;;15.13;4.32;;;;;;;3.97;94.33;103072.72;6273290;28;20049;-68
2021/03/06 12:43:19;;;;;;;13.82;4.30;;;;;;;3.94;93.33;103076.13;6272648;28;20493;-68
2021/03/06 12:46:22;;;;;;;15.88;4.78;;;;;;;4.03;93.21;103067.56;6273070;28;20103;-68
2021/03/06 12:49:23;;;;;;;16.20;4.65;;;;;;;4.10;94.57;103063.31;6272330;28;20053;-69
2021/03/06 12:52:24;;;;;;;16.65;4.13;;;;;;;4.36;92.15;103061.88;6269518;28;20417;-68
2021/03/06 12:55:25;;;;;;;14.30;4.43;;;;;;;4.38;91.63;103048.84;6272933;28;20055;-68
2021/03/06 12:58:26;;;;;;;12.38;5.28;;;;;;;4.23;92.64;103033.97;6274770;22;20057;-75
2021/03/06 13:01:27;;;;;;;13.27;4.88;;;;;;;4.31;91.91;103037.50;6246671;28;20077;-74
2021/03/06 13:04:28;;;;;;;11.35;3.83;;;;;;;4.64;90.17;103034.34;6245837;28;20128;-74
2021/03/06 13:07:29;;;;;;;12.13;3.88;;;;;;;4.84;89.44;103021.44;6246347;28;20077;-74
2021/03/06 13:10:31;;;;;;;14.13;3.92;;;;;;;4.94;89.12;103019.78;6247266;28;20053;-74
2021/03/06 13:13:31;;;;;;;8.40;3.65;;;;;;;5.09;88.31;103010.34;6247027;28;20053;-74
2021/03/06 13:16:32;;;;;;;14.50;3.38;;;;;;;5.37;85.00;103009.63;6247517;28;20053;-74
2021/03/06 13:19:33;;;;;;;9.55;3.28;;;;;;;5.09;85.32;102999.03;6247271;28;20077;-73
2021/03/06 13:22:34;;;;;;;13.65;3.20;;;;;;;5.02;86.96;102994.66;6247198;28;20513;-74
2021/03/06 13:25:39;;;;;;;7.95;3.10;;;;;;;5.09;85.72;102996.44;6247192;28;20076;-74
2021/03/06 13:28:43;;;;;;;6.93;2.95;;;;;;;5.35;85.14;102993.94;6247416;28;20053;-74
2021/03/06 13:31:44;;;;;;;13.77;2.97;;;;;;;5.52;83.54;102991.41;6246642;28;20538;-73
2021/03/06 13:34:45;;;;;;;9.68;2.92;;;;;;;5.17;85.12;102996.47;6232162;28;20080;-74
2021/03/06 13:37:46;;;;;;;8.48;2.90;;;;;;;5.44;82.76;102995.72;6222599;28;20101;-74
2021/03/06 13:40:47;;;;;;;7.75;2.67;;;;;;;5.59;81.20;102990.59;6222519;28;20056;-74
2021/03/06 13:43:48;;;;;;;10.63;2.33;;;;;;;5.47;81.50;102985.31;6222471;28;20050;-73
2021/03/06 13:46:49;;;;;;;6.35;2.42;;;;;;;5.75;81.69;102991.50;6222306;28;20061;-73
2021/03/06 13:49:50;;;;;;;7.60;2.35;;;;;;;5.71;80.75;102981.91;6222435;28;20550;-74
2021/03/06 13:52:51;;;;;;;9.68;2.15;;;;;;;6.42;78.25;102973.34;6222076;28;20497;-74
2021/03/06 13:55:52;;;;;;;4.93;1.92;;;;;;;6.56;77.60;102970.72;6221678;28;20050;-74
2021/03/06 13:58:53;;;;;;;6.15;2.10;;;;;;;6.93;75.20;102968.03;6221906;28;20104;-73
2021/03/06 14:01:54;;;;;;;10.05;2.20;;;;;;;6.70;75.17;102971.56;6222172;28;20053;-73
2021/03/06 14:04:55;;;;;;;5.47;2.15;;;;;;;6.48;74.84;102962.00;6243455;28;20053;-73
2021/03/06 14:07:56;;;;;;;6.75;2.20;;;;;;;6.12;77.32;102968.97;6246786;28;20056;-74